메인 페이지
METAR-TAF:

METAR-TAF

공항 :

박스데일 공군기지

보저시티, 루이지애나, 미국

위도: 32-30N, 경도: 093-40W, 고도: 51m

현재 날씨관측

예보는 12분 전, 14:16시(UTC)에 발표되었습니다.
무풍
온도 6°C
습도 100%
기압 1012 hPa
시정: 0.4km
안개

METAR: KBAD 141416Z AUTO 00000KT 1/4SM R33/1400V2800FT FG VV001 06/06 A2988 RMK AO2 SLP121

시각: 08:28 (14:28 UTC)

예보

예보는 4 시간 28분 전, 10:00시(UTC)에 발표되었습니다.
예보 대상 시간: 14일 10시부터 15일 16시까지 (UTC)
북북서2kt
시정: 0400m
고도 200ft 상공 흐림
안개
전환 중
14일 14시부터 14일 15시까지 (UTC)
서북서5kt
시정 10km 이상
고도 1000ft 상공 구름 보통
전환 중
14일 19시부터 14일 20시까지 (UTC)
동북동5kt
시정 10km 이상
고도 20000ft 상공 구름 보통

TAF: KBAD 141000Z 1410/1516 33002KT 0400 FG OVC002 QNH2983INS BECMG 1414/1415 30005KT 9999 NSW SCT010 QNH2988INS BECMG 1419/1420 06005KT 9999 SCT200 QNH2989INS TX18/1421Z TN06/1413Z

4,000개 이상의 공항 관측 자료 및 예보 (METAR 및 TAF 보고).

지도상에서 검색 가능한 기상관측소가 노란 점과 빨간 점으로 표시되어 있습니다.

기상관측소 명을 보려면 표시 위로 마우스를 이동하세요.

날씨 관측과 예보를 보려면 클릭하세요.

지도 변경 : 확대하려면 엑스 표시가 있는 녹색 버튼, 축소하려면 빼기 표시가 있는 녹색 버튼, 다음 페이지의 지도를 보려면 녹색 화살표를 클릭하세요.


METAR-TAF: